sensor_id;sensor_type;location;lat;lon;timestamp;P1;durP1;ratioP1;P2;durP2;ratioP2
15876;SDS011;8037;51.666;7.834;2023-06-22T00:02:12;3.37;;;2.83;;
15876;SDS011;8037;51.666;7.834;2023-06-22T00:04:38;6.20;;;2.93;;
15876;SDS011;8037;51.666;7.834;2023-06-22T00:07:04;2.83;;;2.63;;
15876;SDS011;8037;51.666;7.834;2023-06-22T00:09:30;4.70;;;2.90;;
15876;SDS011;8037;51.666;7.834;2023-06-22T00:11:57;4.47;;;3.00;;
15876;SDS011;8037;51.666;7.834;2023-06-22T00:14:22;4.13;;;3.40;;
15876;SDS011;8037;51.666;7.834;2023-06-22T00:16:48;3.70;;;3.37;;
15876;SDS011;8037;51.666;7.834;2023-06-22T00:19:19;3.80;;;3.50;;
15876;SDS011;8037;51.666;7.834;2023-06-22T00:21:46;4.53;;;4.00;;
15876;SDS011;8037;51.666;7.834;2023-06-22T00:24:12;2.77;;;2.50;;
15876;SDS011;8037;51.666;7.834;2023-06-22T00:26:38;3.20;;;3.00;;
15876;SDS011;8037;51.666;7.834;2023-06-22T00:29:04;4.17;;;3.87;;
15876;SDS011;8037;51.666;7.834;2023-06-22T00:31:30;4.40;;;3.27;;
15876;SDS011;8037;51.666;7.834;2023-06-22T00:33:56;3.67;;;3.37;;
15876;SDS011;8037;51.666;7.834;2023-06-22T00:36:22;6.10;;;4.40;;
15876;SDS011;8037;51.666;7.834;2023-06-22T00:38:49;4.53;;;4.20;;
15876;SDS011;8037;51.666;7.834;2023-06-22T00:41:16;3.90;;;3.50;;
15876;SDS011;8037;51.666;7.834;2023-06-22T00:43:42;9.93;;;3.73;;
15876;SDS011;8037;51.666;7.834;2023-06-22T00:46:08;5.50;;;3.70;;
15876;SDS011;8037;51.666;7.834;2023-06-22T00:48:34;4.90;;;4.50;;
15876;SDS011;8037;51.666;7.834;2023-06-22T00:51:01;6.40;;;4.07;;
15876;SDS011;8037;51.666;7.834;2023-06-22T00:53:27;4.27;;;3.93;;
15876;SDS011;8037;51.666;7.834;2023-06-22T00:55:53;5.80;;;3.90;;
15876;SDS011;8037;51.666;7.834;2023-06-22T00:58:19;5.23;;;4.57;;
15876;SDS011;8037;51.666;7.834;2023-06-22T01:00:47;5.47;;;4.00;;
15876;SDS011;8037;51.666;7.834;2023-06-22T01:03:13;4.37;;;3.97;;
15876;SDS011;8037;51.666;7.834;2023-06-22T01:05:39;9.07;;;4.97;;
15876;SDS011;8037;51.666;7.834;2023-06-22T01:10:41;7.50;;;5.50;;
15876;SDS011;8037;51.666;7.834;2023-06-22T01:15:46;6.57;;;4.60;;
15876;SDS011;8037;51.666;7.834;2023-06-22T01:18:14;4.00;;;3.63;;
15876;SDS011;8037;51.666;7.834;2023-06-22T01:20:42;5.00;;;4.50;;
15876;SDS011;8037;51.666;7.834;2023-06-22T01:23:29;6.93;;;4.60;;
15876;SDS011;8037;51.666;7.834;2023-06-22T01:31:10;11.00;;;4.30;;
15876;SDS011;8037;51.666;7.834;2023-06-22T01:33:38;7.20;;;5.30;;
15876;SDS011;8037;51.666;7.834;2023-06-22T01:36:05;6.70;;;4.70;;
15876;SDS011;8037;51.666;7.834;2023-06-22T01:38:32;7.43;;;4.83;;
15876;SDS011;8037;51.666;7.834;2023-06-22T01:40:58;8.97;;;5.90;;
15876;SDS011;8037;51.666;7.834;2023-06-22T01:43:25;5.10;;;4.70;;
15876;SDS011;8037;51.666;7.834;2023-06-22T01:45:52;5.37;;;4.87;;
15876;SDS011;8037;51.666;7.834;2023-06-22T01:48:18;10.60;;;5.43;;
15876;SDS011;8037;51.666;7.834;2023-06-22T01:50:45;11.23;;;5.50;;
15876;SDS011;8037;51.666;7.834;2023-06-22T01:53:11;5.63;;;5.13;;
15876;SDS011;8037;51.666;7.834;2023-06-22T01:55:36;9.57;;;5.80;;
15876;SDS011;8037;51.666;7.834;2023-06-22T01:58:02;5.30;;;4.80;;
15876;SDS011;8037;51.666;7.834;2023-06-22T02:00:29;6.23;;;5.63;;
15876;SDS011;8037;51.666;7.834;2023-06-22T02:03:05;11.57;;;5.50;;
15876;SDS011;8037;51.666;7.834;2023-06-22T02:05:42;8.40;;;5.90;;
15876;SDS011;8037;51.666;7.834;2023-06-22T02:08:13;6.07;;;5.50;;
15876;SDS011;8037;51.666;7.834;2023-06-22T02:10:43;9.27;;;5.50;;
15876;SDS011;8037;51.666;7.834;2023-06-22T02:13:09;7.23;;;5.00;;
15876;SDS011;8037;51.666;7.834;2023-06-22T02:15:36;7.77;;;5.30;;
15876;SDS011;8037;51.666;7.834;2023-06-22T02:18:02;10.53;;;6.27;;
15876;SDS011;8037;51.666;7.834;2023-06-22T02:20:28;5.60;;;5.17;;
15876;SDS011;8037;51.666;7.834;2023-06-22T02:22:54;9.40;;;5.53;;
15876;SDS011;8037;51.666;7.834;2023-06-22T02:25:20;6.10;;;5.60;;
15876;SDS011;8037;51.666;7.834;2023-06-22T02:27:46;6.33;;;5.73;;
15876;SDS011;8037;51.666;7.834;2023-06-22T02:30:12;9.63;;;5.70;;
15876;SDS011;8037;51.666;7.834;2023-06-22T02:32:39;7.60;;;5.40;;
15876;SDS011;8037;51.666;7.834;2023-06-22T02:35:07;6.20;;;5.70;;
15876;SDS011;8037;51.666;7.834;2023-06-22T02:37:35;9.00;;;5.30;;
15876;SDS011;8037;51.666;7.834;2023-06-22T02:40:03;6.67;;;5.87;;
15876;SDS011;8037;51.666;7.834;2023-06-22T02:42:30;7.40;;;5.93;;
15876;SDS011;8037;51.666;7.834;2023-06-22T02:44:56;6.20;;;5.70;;
15876;SDS011;8037;51.666;7.834;2023-06-22T02:47:22;6.33;;;5.73;;
15876;SDS011;8037;51.666;7.834;2023-06-22T02:49:48;6.43;;;5.83;;
15876;SDS011;8037;51.666;7.834;2023-06-22T02:52:14;6.27;;;5.33;;
15876;SDS011;8037;51.666;7.834;2023-06-22T02:54:40;7.70;;;5.53;;
15876;SDS011;8037;51.666;7.834;2023-06-22T02:57:06;7.87;;;5.60;;
15876;SDS011;8037;51.666;7.834;2023-06-22T02:59:38;6.77;;;6.10;;
15876;SDS011;8037;51.666;7.834;2023-06-22T03:02:05;8.67;;;5.60;;
15876;SDS011;8037;51.666;7.834;2023-06-22T03:04:31;17.40;;;6.40;;
15876;SDS011;8037;51.666;7.834;2023-06-22T03:06:57;5.30;;;4.83;;
15876;SDS011;8037;51.666;7.834;2023-06-22T03:09:26;5.10;;;4.60;;
15876;SDS011;8037;51.666;7.834;2023-06-22T03:11:52;6.27;;;5.77;;
15876;SDS011;8037;51.666;7.834;2023-06-22T03:14:18;8.97;;;5.47;;
15876;SDS011;8037;51.666;7.834;2023-06-22T03:16:44;12.00;;;5.90;;
15876;SDS011;8037;51.666;7.834;2023-06-22T03:19:10;8.60;;;7.10;;
15876;SDS011;8037;51.666;7.834;2023-06-22T03:21:37;6.97;;;5.60;;
15876;SDS011;8037;51.666;7.834;2023-06-22T03:24:03;8.93;;;5.67;;
15876;SDS011;8037;51.666;7.834;2023-06-22T03:26:30;9.13;;;6.00;;
15876;SDS011;8037;51.666;7.834;2023-06-22T03:28:55;8.97;;;6.40;;
15876;SDS011;8037;51.666;7.834;2023-06-22T03:31:22;6.57;;;5.87;;
15876;SDS011;8037;51.666;7.834;2023-06-22T03:33:48;5.07;;;4.67;;
15876;SDS011;8037;51.666;7.834;2023-06-22T03:36:14;14.70;;;7.23;;
15876;SDS011;8037;51.666;7.834;2023-06-22T03:38:48;7.90;;;6.50;;
15876;SDS011;8037;51.666;7.834;2023-06-22T03:41:14;7.33;;;6.57;;
15876;SDS011;8037;51.666;7.834;2023-06-22T03:43:40;9.17;;;6.50;;
15876;SDS011;8037;51.666;7.834;2023-06-22T03:46:06;12.30;;;6.30;;
15876;SDS011;8037;51.666;7.834;2023-06-22T03:48:32;9.47;;;6.20;;
15876;SDS011;8037;51.666;7.834;2023-06-22T03:51:01;7.90;;;7.10;;
15876;SDS011;8037;51.666;7.834;2023-06-22T03:53:28;8.93;;;7.20;;
15876;SDS011;8037;51.666;7.834;2023-06-22T03:55:54;8.23;;;6.90;;
15876;SDS011;8037;51.666;7.834;2023-06-22T03:58:20;16.30;;;6.30;;
15876;SDS011;8037;51.666;7.834;2023-06-22T04:00:46;8.80;;;7.07;;
15876;SDS011;8037;51.666;7.834;2023-06-22T04:03:13;9.50;;;6.60;;
15876;SDS011;8037;51.666;7.834;2023-06-22T04:05:40;9.33;;;6.70;;
15876;SDS011;8037;51.666;7.834;2023-06-22T04:08:06;8.67;;;6.87;;
15876;SDS011;8037;51.666;7.834;2023-06-22T04:10:32;7.50;;;6.50;;
15876;SDS011;8037;51.666;7.834;2023-06-22T04:12:57;8.67;;;7.63;;
15876;SDS011;8037;51.666;7.834;2023-06-22T04:15:23;7.77;;;6.73;;
15876;SDS011;8037;51.666;7.834;2023-06-22T04:17:49;7.30;;;6.60;;
15876;SDS011;8037;51.666;7.834;2023-06-22T04:20:15;9.00;;;7.30;;
15876;SDS011;8037;51.666;7.834;2023-06-22T04:22:41;18.80;;;7.00;;
15876;SDS011;8037;51.666;7.834;2023-06-22T04:25:07;12.50;;;7.30;;
15876;SDS011;8037;51.666;7.834;2023-06-22T04:27:33;10.27;;;6.03;;
15876;SDS011;8037;51.666;7.834;2023-06-22T04:30:06;7.53;;;6.83;;
15876;SDS011;8037;51.666;7.834;2023-06-22T04:32:32;7.47;;;6.63;;
15876;SDS011;8037;51.666;7.834;2023-06-22T04:34:58;20.33;;;6.33;;
15876;SDS011;8037;51.666;7.834;2023-06-22T04:37:27;16.90;;;8.50;;
15876;SDS011;8037;51.666;7.834;2023-06-22T04:39:53;12.40;;;7.37;;
15876;SDS011;8037;51.666;7.834;2023-06-22T04:42:19;9.10;;;7.00;;
15876;SDS011;8037;51.666;7.834;2023-06-22T04:44:45;8.13;;;7.43;;
15876;SDS011;8037;51.666;7.834;2023-06-22T04:47:11;9.13;;;7.13;;
15876;SDS011;8037;51.666;7.834;2023-06-22T04:49:37;8.00;;;7.20;;
15876;SDS011;8037;51.666;7.834;2023-06-22T04:52:05;10.13;;;6.80;;
15876;SDS011;8037;51.666;7.834;2023-06-22T04:54:32;10.47;;;7.07;;
15876;SDS011;8037;51.666;7.834;2023-06-22T04:56:58;8.13;;;7.20;;
15876;SDS011;8037;51.666;7.834;2023-06-22T04:59:25;9.97;;;7.77;;
15876;SDS011;8037;51.666;7.834;2023-06-22T05:01:53;9.03;;;7.23;;
15876;SDS011;8037;51.666;7.834;2023-06-22T05:04:19;7.50;;;6.70;;
15876;SDS011;8037;51.666;7.834;2023-06-22T05:06:45;9.93;;;6.10;;
15876;SDS011;8037;51.666;7.834;2023-06-22T05:09:11;6.67;;;6.07;;
15876;SDS011;8037;51.666;7.834;2023-06-22T05:11:37;9.50;;;6.70;;
15876;SDS011;8037;51.666;7.834;2023-06-22T05:14:03;8.93;;;7.87;;
15876;SDS011;8037;51.666;7.834;2023-06-22T05:16:29;8.50;;;6.63;;
15876;SDS011;8037;51.666;7.834;2023-06-22T05:18:55;8.90;;;7.03;;
15876;SDS011;8037;51.666;7.834;2023-06-22T05:21:24;7.50;;;6.77;;
15876;SDS011;8037;51.666;7.834;2023-06-22T05:23:50;8.40;;;6.33;;
15876;SDS011;8037;51.666;7.834;2023-06-22T05:26:17;21.57;;;8.53;;
15876;SDS011;8037;51.666;7.834;2023-06-22T05:28:43;24.33;;;7.50;;
15876;SDS011;8037;51.666;7.834;2023-06-22T05:31:11;7.53;;;6.80;;
15876;SDS011;8037;51.666;7.834;2023-06-22T05:33:38;9.47;;;7.87;;
15876;SDS011;8037;51.666;7.834;2023-06-22T05:36:04;9.20;;;7.70;;
15876;SDS011;8037;51.666;7.834;2023-06-22T05:38:30;8.73;;;7.83;;
15876;SDS011;8037;51.666;7.834;2023-06-22T05:40:56;9.80;;;7.20;;
15876;SDS011;8037;51.666;7.834;2023-06-22T05:43:22;11.90;;;7.00;;
15876;SDS011;8037;51.666;7.834;2023-06-22T05:45:48;8.90;;;7.33;;
15876;SDS011;8037;51.666;7.834;2023-06-22T05:48:13;13.03;;;7.70;;
15876;SDS011;8037;51.666;7.834;2023-06-22T05:50:39;9.87;;;7.83;;
15876;SDS011;8037;51.666;7.834;2023-06-22T05:53:05;12.17;;;6.93;;
15876;SDS011;8037;51.666;7.834;2023-06-22T05:55:32;9.20;;;7.10;;
15876;SDS011;8037;51.666;7.834;2023-06-22T05:57:58;9.23;;;6.77;;
15876;SDS011;8037;51.666;7.834;2023-06-22T06:00:23;7.77;;;6.53;;
15876;SDS011;8037;51.666;7.834;2023-06-22T06:02:49;9.60;;;6.40;;
15876;SDS011;8037;51.666;7.834;2023-06-22T06:05:15;6.97;;;6.20;;
15876;SDS011;8037;51.666;7.834;2023-06-22T06:07:42;7.00;;;6.30;;
15876;SDS011;8037;51.666;7.834;2023-06-22T06:10:08;16.53;;;7.53;;
15876;SDS011;8037;51.666;7.834;2023-06-22T06:12:34;7.90;;;7.20;;
15876;SDS011;8037;51.666;7.834;2023-06-22T06:15:00;8.73;;;6.90;;
15876;SDS011;8037;51.666;7.834;2023-06-22T06:17:26;7.20;;;6.50;;
15876;SDS011;8037;51.666;7.834;2023-06-22T06:19:52;8.00;;;5.87;;
15876;SDS011;8037;51.666;7.834;2023-06-22T06:22:18;10.70;;;7.00;;
15876;SDS011;8037;51.666;7.834;2023-06-22T06:24:46;16.70;;;7.40;;
15876;SDS011;8037;51.666;7.834;2023-06-22T06:27:12;7.30;;;6.70;;
15876;SDS011;8037;51.666;7.834;2023-06-22T06:29:38;13.43;;;8.53;;
15876;SDS011;8037;51.666;7.834;2023-06-22T06:32:04;7.53;;;6.83;;
15876;SDS011;8037;51.666;7.834;2023-06-22T06:34:30;8.90;;;7.37;;
15876;SDS011;8037;51.666;7.834;2023-06-22T06:36:56;10.23;;;7.30;;
15876;SDS011;8037;51.666;7.834;2023-06-22T06:39:22;9.20;;;7.33;;
15876;SDS011;8037;51.666;7.834;2023-06-22T06:41:48;7.57;;;6.83;;
15876;SDS011;8037;51.666;7.834;2023-06-22T06:44:13;7.77;;;7.10;;
15876;SDS011;8037;51.666;7.834;2023-06-22T06:46:39;11.77;;;8.00;;
15876;SDS011;8037;51.666;7.834;2023-06-22T06:49:06;7.30;;;6.63;;
15876;SDS011;8037;51.666;7.834;2023-06-22T06:51:32;10.30;;;7.43;;
15876;SDS011;8037;51.666;7.834;2023-06-22T06:53:58;13.23;;;7.80;;
15876;SDS011;8037;51.666;7.834;2023-06-22T06:56:24;12.80;;;7.60;;
15876;SDS011;8037;51.666;7.834;2023-06-22T06:58:50;17.63;;;8.80;;
15876;SDS011;8037;51.666;7.834;2023-06-22T07:01:16;10.07;;;8.23;;
15876;SDS011;8037;51.666;7.834;2023-06-22T07:03:42;15.10;;;8.27;;
15876;SDS011;8037;51.666;7.834;2023-06-22T07:06:08;10.67;;;9.50;;
15876;SDS011;8037;51.666;7.834;2023-06-22T07:08:34;17.00;;;9.13;;
15876;SDS011;8037;51.666;7.834;2023-06-22T07:11:01;11.00;;;9.47;;
15876;SDS011;8037;51.666;7.834;2023-06-22T07:13:27;15.23;;;9.00;;
15876;SDS011;8037;51.666;7.834;2023-06-22T07:15:53;15.33;;;9.97;;
15876;SDS011;8037;51.666;7.834;2023-06-22T07:18:19;14.57;;;10.93;;
15876;SDS011;8037;51.666;7.834;2023-06-22T07:20:45;13.43;;;10.93;;
15876;SDS011;8037;51.666;7.834;2023-06-22T07:23:12;16.60;;;10.07;;
15876;SDS011;8037;51.666;7.834;2023-06-22T07:25:38;20.27;;;11.43;;
15876;SDS011;8037;51.666;7.834;2023-06-22T07:28:04;15.10;;;11.47;;
15876;SDS011;8037;51.666;7.834;2023-06-22T07:30:31;13.77;;;10.87;;
15876;SDS011;8037;51.666;7.834;2023-06-22T07:32:57;14.40;;;12.90;;
15876;SDS011;8037;51.666;7.834;2023-06-22T07:35:24;14.43;;;11.20;;
15876;SDS011;8037;51.666;7.834;2023-06-22T07:37:50;16.67;;;12.00;;
15876;SDS011;8037;51.666;7.834;2023-06-22T07:40:16;13.53;;;11.07;;
15876;SDS011;8037;51.666;7.834;2023-06-22T07:42:42;15.00;;;12.20;;
15876;SDS011;8037;51.666;7.834;2023-06-22T07:45:07;13.40;;;12.00;;
15876;SDS011;8037;51.666;7.834;2023-06-22T07:47:34;22.33;;;12.60;;
15876;SDS011;8037;51.666;7.834;2023-06-22T07:50:00;14.00;;;12.60;;
15876;SDS011;8037;51.666;7.834;2023-06-22T07:52:26;13.00;;;10.80;;
15876;SDS011;8037;51.666;7.834;2023-06-22T07:54:52;19.10;;;12.10;;
15876;SDS011;8037;51.666;7.834;2023-06-22T07:57:19;18.33;;;12.93;;
15876;SDS011;8037;51.666;7.834;2023-06-22T07:59:45;14.17;;;12.53;;
15876;SDS011;8037;51.666;7.834;2023-06-22T08:02:11;17.43;;;12.37;;
15876;SDS011;8037;51.666;7.834;2023-06-22T08:04:37;17.17;;;12.90;;
15876;SDS011;8037;51.666;7.834;2023-06-22T08:07:03;16.43;;;13.03;;
15876;SDS011;8037;51.666;7.834;2023-06-22T08:09:32;26.67;;;14.67;;
15876;SDS011;8037;51.666;7.834;2023-06-22T08:11:59;21.73;;;13.43;;
15876;SDS011;8037;51.666;7.834;2023-06-22T08:14:25;13.43;;;12.03;;
15876;SDS011;8037;51.666;7.834;2023-06-22T08:16:52;18.67;;;11.23;;
15876;SDS011;8037;51.666;7.834;2023-06-22T08:19:17;25.17;;;12.20;;
15876;SDS011;8037;51.666;7.834;2023-06-22T08:21:43;14.93;;;11.83;;
15876;SDS011;8037;51.666;7.834;2023-06-22T08:24:09;11.83;;;10.33;;
15876;SDS011;8037;51.666;7.834;2023-06-22T08:26:35;14.87;;;11.10;;
15876;SDS011;8037;51.666;7.834;2023-06-22T08:29:05;11.70;;;10.43;;
15876;SDS011;8037;51.666;7.834;2023-06-22T08:31:31;16.70;;;8.93;;
15876;SDS011;8037;51.666;7.834;2023-06-22T08:33:59;18.13;;;11.37;;
15876;SDS011;8037;51.666;7.834;2023-06-22T08:36:25;19.67;;;10.47;;
15876;SDS011;8037;51.666;7.834;2023-06-22T08:38:53;13.40;;;9.33;;
15876;SDS011;8037;51.666;7.834;2023-06-22T08:41:22;22.70;;;11.20;;
15876;SDS011;8037;51.666;7.834;2023-06-22T08:43:49;19.47;;;9.90;;
15876;SDS011;8037;51.666;7.834;2023-06-22T08:46:15;17.40;;;9.23;;
15876;SDS011;8037;51.666;7.834;2023-06-22T08:48:44;13.97;;;8.70;;
15876;SDS011;8037;51.666;7.834;2023-06-22T08:51:10;11.43;;;8.30;;
15876;SDS011;8037;51.666;7.834;2023-06-22T08:53:36;8.43;;;7.53;;
15876;SDS011;8037;51.666;7.834;2023-06-22T08:56:02;9.07;;;8.10;;
15876;SDS011;8037;51.666;7.834;2023-06-22T08:58:28;8.13;;;7.33;;
15876;SDS011;8037;51.666;7.834;2023-06-22T09:00:54;8.07;;;7.27;;
15876;SDS011;8037;51.666;7.834;2023-06-22T09:03:20;13.40;;;7.53;;
15876;SDS011;8037;51.666;7.834;2023-06-22T09:05:46;11.60;;;7.70;;
15876;SDS011;8037;51.666;7.834;2023-06-22T09:08:12;7.63;;;6.90;;
15876;SDS011;8037;51.666;7.834;2023-06-22T09:10:38;6.83;;;5.90;;
15876;SDS011;8037;51.666;7.834;2023-06-22T09:13:04;6.80;;;6.10;;
15876;SDS011;8037;51.666;7.834;2023-06-22T09:15:30;9.10;;;5.77;;
15876;SDS011;8037;51.666;7.834;2023-06-22T09:17:56;10.50;;;6.20;;
15876;SDS011;8037;51.666;7.834;2023-06-22T09:20:22;17.23;;;6.50;;
15876;SDS011;8037;51.666;7.834;2023-06-22T09:22:48;6.97;;;5.73;;
15876;SDS011;8037;51.666;7.834;2023-06-22T09:25:14;5.53;;;5.03;;
15876;SDS011;8037;51.666;7.834;2023-06-22T09:27:40;8.20;;;6.50;;
15876;SDS011;8037;51.666;7.834;2023-06-22T09:30:06;5.10;;;4.70;;
15876;SDS011;8037;51.666;7.834;2023-06-22T09:32:33;6.63;;;6.00;;
15876;SDS011;8037;51.666;7.834;2023-06-22T09:34:59;8.07;;;6.40;;
15876;SDS011;8037;51.666;7.834;2023-06-22T09:37:25;6.90;;;6.23;;
15876;SDS011;8037;51.666;7.834;2023-06-22T09:39:50;7.07;;;6.37;;
15876;SDS011;8037;51.666;7.834;2023-06-22T09:42:16;9.80;;;6.30;;
15876;SDS011;8037;51.666;7.834;2023-06-22T09:44:42;6.83;;;6.23;;
15876;SDS011;8037;51.666;7.834;2023-06-22T09:47:08;10.57;;;6.73;;
15876;SDS011;8037;51.666;7.834;2023-06-22T09:49:34;10.57;;;7.20;;
15876;SDS011;8037;51.666;7.834;2023-06-22T09:52:00;7.50;;;6.70;;
15876;SDS011;8037;51.666;7.834;2023-06-22T09:54:26;14.10;;;7.73;;
15876;SDS011;8037;51.666;7.834;2023-06-22T09:56:52;9.03;;;7.20;;
15876;SDS011;8037;51.666;7.834;2023-06-22T09:59:17;8.37;;;7.23;;
15876;SDS011;8037;51.666;7.834;2023-06-22T10:01:44;8.77;;;7.90;;
15876;SDS011;8037;51.666;7.834;2023-06-22T10:04:10;7.30;;;6.27;;
15876;SDS011;8037;51.666;7.834;2023-06-22T10:06:36;9.37;;;6.70;;
15876;SDS011;8037;51.666;7.834;2023-06-22T10:09:06;8.73;;;5.57;;
15876;SDS011;8037;51.666;7.834;2023-06-22T10:11:34;5.30;;;4.83;;
15876;SDS011;8037;51.666;7.834;2023-06-22T10:14:02;8.67;;;5.77;;
15876;SDS011;8037;51.666;7.834;2023-06-22T10:16:32;6.10;;;5.50;;
15876;SDS011;8037;51.666;7.834;2023-06-22T10:19:00;5.73;;;4.67;;
15876;SDS011;8037;51.666;7.834;2023-06-22T10:21:26;5.20;;;4.70;;
15876;SDS011;8037;51.666;7.834;2023-06-22T10:23:53;4.73;;;3.83;;
15876;SDS011;8037;51.666;7.834;2023-06-22T10:26:19;5.30;;;4.80;;
15876;SDS011;8037;51.666;7.834;2023-06-22T10:28:45;6.50;;;4.87;;
15876;SDS011;8037;51.666;7.834;2023-06-22T10:31:11;6.13;;;4.47;;
15876;SDS011;8037;51.666;7.834;2023-06-22T10:33:37;5.03;;;4.47;;
15876;SDS011;8037;51.666;7.834;2023-06-22T10:36:03;8.10;;;4.43;;
15876;SDS011;8037;51.666;7.834;2023-06-22T10:38:29;4.67;;;3.97;;
15876;SDS011;8037;51.666;7.834;2023-06-22T10:40:55;4.63;;;4.20;;
15876;SDS011;8037;51.666;7.834;2023-06-22T10:43:21;6.03;;;4.00;;
15876;SDS011;8037;51.666;7.834;2023-06-22T10:45:47;3.70;;;3.40;;
15876;SDS011;8037;51.666;7.834;2023-06-22T10:48:13;5.13;;;4.63;;
15876;SDS011;8037;51.666;7.834;2023-06-22T10:50:39;3.47;;;3.27;;
15876;SDS011;8037;51.666;7.834;2023-06-22T10:53:05;5.37;;;3.43;;
15876;SDS011;8037;51.666;7.834;2023-06-22T10:55:31;4.60;;;3.53;;
15876;SDS011;8037;51.666;7.834;2023-06-22T10:57:56;3.90;;;3.53;;
15876;SDS011;8037;51.666;7.834;2023-06-22T11:00:22;4.87;;;4.47;;
15876;SDS011;8037;51.666;7.834;2023-06-22T11:02:48;4.60;;;4.20;;
15876;SDS011;8037;51.666;7.834;2023-06-22T11:05:14;4.80;;;3.97;;
15876;SDS011;8037;51.666;7.834;2023-06-22T11:07:43;5.63;;;3.50;;
15876;SDS011;8037;51.666;7.834;2023-06-22T11:10:10;4.67;;;4.27;;
15876;SDS011;8037;51.666;7.834;2023-06-22T11:12:36;4.00;;;3.70;;
15876;SDS011;8037;51.666;7.834;2023-06-22T11:15:02;8.10;;;4.23;;
15876;SDS011;8037;51.666;7.834;2023-06-22T11:17:28;9.93;;;4.80;;
15876;SDS011;8037;51.666;7.834;2023-06-22T11:19:54;4.63;;;4.17;;
15876;SDS011;8037;51.666;7.834;2023-06-22T11:22:20;4.30;;;3.90;;
15876;SDS011;8037;51.666;7.834;2023-06-22T11:24:46;4.93;;;4.53;;
15876;SDS011;8037;51.666;7.834;2023-06-22T11:27:12;4.43;;;3.70;;
15876;SDS011;8037;51.666;7.834;2023-06-22T11:29:38;3.77;;;3.47;;
15876;SDS011;8037;51.666;7.834;2023-06-22T11:32:05;4.87;;;4.47;;
15876;SDS011;8037;51.666;7.834;2023-06-22T11:34:31;4.13;;;3.63;;
15876;SDS011;8037;51.666;7.834;2023-06-22T11:36:57;11.33;;;4.73;;
15876;SDS011;8037;51.666;7.834;2023-06-22T11:39:23;4.97;;;4.57;;
15876;SDS011;8037;51.666;7.834;2023-06-22T11:41:49;4.60;;;4.20;;
15876;SDS011;8037;51.666;7.834;2023-06-22T11:44:15;4.80;;;4.40;;
15876;SDS011;8037;51.666;7.834;2023-06-22T11:46:41;5.33;;;4.87;;
15876;SDS011;8037;51.666;7.834;2023-06-22T11:49:06;6.90;;;4.40;;
15876;SDS011;8037;51.666;7.834;2023-06-22T11:51:32;4.90;;;4.50;;
15876;SDS011;8037;51.666;7.834;2023-06-22T11:53:58;4.30;;;4.00;;
15876;SDS011;8037;51.666;7.834;2023-06-22T11:56:24;5.03;;;4.47;;
15876;SDS011;8037;51.666;7.834;2023-06-22T11:58:50;7.77;;;4.83;;
15876;SDS011;8037;51.666;7.834;2023-06-22T12:01:16;6.30;;;5.70;;
15876;SDS011;8037;51.666;7.834;2023-06-22T12:03:42;5.50;;;5.00;;
15876;SDS011;8037;51.666;7.834;2023-06-22T12:06:09;7.93;;;4.53;;
15876;SDS011;8037;51.666;7.834;2023-06-22T12:08:35;5.53;;;5.03;;
15876;SDS011;8037;51.666;7.834;2023-06-22T12:11:00;6.03;;;5.43;;
15876;SDS011;8037;51.666;7.834;2023-06-22T12:13:26;9.43;;;5.87;;
15876;SDS011;8037;51.666;7.834;2023-06-22T12:15:52;6.50;;;5.90;;
15876;SDS011;8037;51.666;7.834;2023-06-22T12:18:18;8.53;;;5.63;;
15876;SDS011;8037;51.666;7.834;2023-06-22T12:20:46;7.03;;;5.47;;
15876;SDS011;8037;51.666;7.834;2023-06-22T12:23:12;8.50;;;5.97;;
15876;SDS011;8037;51.666;7.834;2023-06-22T12:25:38;8.23;;;7.00;;
15876;SDS011;8037;51.666;7.834;2023-06-22T12:28:04;8.60;;;5.67;;
15876;SDS011;8037;51.666;7.834;2023-06-22T12:30:30;15.23;;;6.33;;
15876;SDS011;8037;51.666;7.834;2023-06-22T12:32:56;16.63;;;6.43;;
15876;SDS011;8037;51.666;7.834;2023-06-22T12:35:22;7.73;;;6.93;;
15876;SDS011;8037;51.666;7.834;2023-06-22T12:37:48;7.03;;;6.43;;
15876;SDS011;8037;51.666;7.834;2023-06-22T12:40:14;9.23;;;6.97;;
15876;SDS011;8037;51.666;7.834;2023-06-22T12:42:40;9.80;;;6.83;;
15876;SDS011;8037;51.666;7.834;2023-06-22T12:45:07;7.73;;;6.70;;
15876;SDS011;8037;51.666;7.834;2023-06-22T12:47:33;8.20;;;7.10;;
15876;SDS011;8037;51.666;7.834;2023-06-22T12:49:59;7.83;;;7.13;;
15876;SDS011;8037;51.666;7.834;2023-06-22T12:52:25;7.30;;;6.23;;
15876;SDS011;8037;51.666;7.834;2023-06-22T12:54:51;10.23;;;7.70;;
15876;SDS011;8037;51.666;7.834;2023-06-22T12:57:17;10.40;;;7.90;;
15876;SDS011;8037;51.666;7.834;2023-06-22T12:59:44;11.80;;;7.73;;
15876;SDS011;8037;51.666;7.834;2023-06-22T13:02:10;8.83;;;7.47;;
15876;SDS011;8037;51.666;7.834;2023-06-22T13:04:36;10.33;;;7.53;;
15876;SDS011;8037;51.666;7.834;2023-06-22T13:07:02;8.57;;;7.50;;
15876;SDS011;8037;51.666;7.834;2023-06-22T13:09:28;9.10;;;7.60;;
15876;SDS011;8037;51.666;7.834;2023-06-22T13:11:54;9.67;;;7.63;;
15876;SDS011;8037;51.666;7.834;2023-06-22T13:14:20;8.40;;;7.40;;
15876;SDS011;8037;51.666;7.834;2023-06-22T13:16:46;9.80;;;8.17;;
15876;SDS011;8037;51.666;7.834;2023-06-22T13:19:12;13.30;;;7.63;;
15876;SDS011;8037;51.666;7.834;2023-06-22T13:21:38;9.40;;;7.63;;
15876;SDS011;8037;51.666;7.834;2023-06-22T13:24:04;14.00;;;7.33;;
15876;SDS011;8037;51.666;7.834;2023-06-22T13:26:31;11.37;;;8.07;;
15876;SDS011;8037;51.666;7.834;2023-06-22T13:28:57;9.47;;;8.60;;
15876;SDS011;8037;51.666;7.834;2023-06-22T13:31:23;15.80;;;8.23;;
15876;SDS011;8037;51.666;7.834;2023-06-22T13:33:49;12.93;;;9.23;;
15876;SDS011;8037;51.666;7.834;2023-06-22T13:36:17;10.57;;;9.47;;
15876;SDS011;8037;51.666;7.834;2023-06-22T13:38:43;14.20;;;8.77;;
15876;SDS011;8037;51.666;7.834;2023-06-22T13:41:09;11.63;;;9.50;;
15876;SDS011;8037;51.666;7.834;2023-06-22T13:43:35;14.93;;;9.33;;
15876;SDS011;8037;51.666;7.834;2023-06-22T13:46:01;11.70;;;9.40;;
15876;SDS011;8037;51.666;7.834;2023-06-22T13:48:27;10.73;;;8.07;;
15876;SDS011;8037;51.666;7.834;2023-06-22T13:50:53;9.80;;;8.90;;
15876;SDS011;8037;51.666;7.834;2023-06-22T13:53:19;12.47;;;9.90;;
15876;SDS011;8037;51.666;7.834;2023-06-22T13:55:45;12.30;;;9.10;;
15876;SDS011;8037;51.666;7.834;2023-06-22T13:58:12;13.13;;;9.50;;
15876;SDS011;8037;51.666;7.834;2023-06-22T14:00:38;11.77;;;8.90;;
15876;SDS011;8037;51.666;7.834;2023-06-22T14:03:04;9.30;;;8.33;;
15876;SDS011;8037;51.666;7.834;2023-06-22T14:05:30;13.70;;;8.03;;
15876;SDS011;8037;51.666;7.834;2023-06-22T14:07:56;8.30;;;7.50;;
15876;SDS011;8037;51.666;7.834;2023-06-22T14:10:22;12.27;;;8.90;;
15876;SDS011;8037;51.666;7.834;2023-06-22T14:12:47;10.80;;;9.70;;
15876;SDS011;8037;51.666;7.834;2023-06-22T14:15:13;10.57;;;9.27;;
15876;SDS011;8037;51.666;7.834;2023-06-22T14:17:39;11.63;;;9.27;;
15876;SDS011;8037;51.666;7.834;2023-06-22T14:20:05;8.53;;;7.73;;
15876;SDS011;8037;51.666;7.834;2023-06-22T14:22:33;11.70;;;9.17;;
15876;SDS011;8037;51.666;7.834;2023-06-22T14:25:00;12.87;;;10.23;;
15876;SDS011;8037;51.666;7.834;2023-06-22T14:27:26;12.23;;;9.87;;
15876;SDS011;8037;51.666;7.834;2023-06-22T14:29:52;21.87;;;11.13;;
15876;SDS011;8037;51.666;7.834;2023-06-22T14:32:18;15.47;;;11.07;;
15876;SDS011;8037;51.666;7.834;2023-06-22T14:34:44;14.20;;;11.87;;
15876;SDS011;8037;51.666;7.834;2023-06-22T14:37:10;13.80;;;11.00;;
15876;SDS011;8037;51.666;7.834;2023-06-22T14:39:37;13.43;;;11.90;;
15876;SDS011;8037;51.666;7.834;2023-06-22T14:42:04;16.80;;;12.30;;
15876;SDS011;8037;51.666;7.834;2023-06-22T14:44:30;13.57;;;11.10;;
15876;SDS011;8037;51.666;7.834;2023-06-22T14:46:56;15.20;;;12.10;;
15876;SDS011;8037;51.666;7.834;2023-06-22T14:49:22;14.97;;;9.87;;
15876;SDS011;8037;51.666;7.834;2023-06-22T14:51:48;17.77;;;11.50;;
15876;SDS011;8037;51.666;7.834;2023-06-22T14:54:14;13.87;;;12.30;;
15876;SDS011;8037;51.666;7.834;2023-06-22T14:56:40;12.67;;;11.30;;
15876;SDS011;8037;51.666;7.834;2023-06-22T14:59:07;13.37;;;11.87;;
15876;SDS011;8037;51.666;7.834;2023-06-22T15:01:33;13.60;;;11.87;;